TNO1122 MMMD-MRLB
Flight info
| Callsign | TNO1122 |
|---|---|
| Flight time | 1h 46m |
| Altitude | 35000 |
| Route | DUSLO2A DUSLO UB753 BZE UZ512 MGA UM328 IMOLA |
| Aircraft | A319/M-SDE3FGHIRWY/LB1 |
Departure
| Time | 2026-04-20 13:59 |
|---|---|
| Airport | Manuel Crescencio Rejón International Airport (MMMD) |
Arrival
| Time | 2026-04-20 15:46 |
|---|---|
| Airport | Daniel Oduber Quirós International Airport (MRLB) |
| Time | Latitude | Longitude | Altitude | Speed | Heading |
|---|---|---|---|---|---|
| 2026-04-20 13:44 | 20.93614 | -89.66426 | 50 ft | 0 kts | 327° |
| 2026-04-20 13:55 | 20.93611 | -89.66424 | 50 ft | 2 kts | 328° |
| 2026-04-20 13:55 | 20.93598 | -89.66415 | 50 ft | 3 kts | 327° |
| 2026-04-20 13:56 | 20.93581 | -89.66403 | 50 ft | 3 kts | 327° |
| 2026-04-20 13:56 | 20.93566 | -89.66393 | 50 ft | 2 kts | 328° |
| 2026-04-20 13:56 | 20.93551 | -89.66384 | 50 ft | 3 kts | 338° |
| 2026-04-20 13:56 | 20.93532 | -89.66380 | 50 ft | 3 kts | 358° |
| 2026-04-20 13:57 | 20.93527 | -89.66379 | 50 ft | 4 kts | 15° |
| 2026-04-20 13:57 | 20.93562 | -89.66330 | 50 ft | 9 kts | 85° |
| 2026-04-20 13:57 | 20.93572 | -89.66254 | 50 ft | 13 kts | 54° |
| 2026-04-20 13:57 | 20.93663 | -89.66235 | 50 ft | 17 kts | 0° |
| 2026-04-20 13:58 | 20.93798 | -89.66233 | 50 ft | 17 kts | 1° |
| 2026-04-20 13:58 | 20.93905 | -89.66225 | 50 ft | 12 kts | 28° |
| 2026-04-20 13:58 | 20.93916 | -89.66164 | 50 ft | 9 kts | 101° |
| 2026-04-20 13:58 | 20.93883 | -89.66030 | 50 ft | 41 kts | 104° |
| 2026-04-20 13:59 | 20.93736 | -89.65424 | 50 ft | 135 kts | 105° |
| 2026-04-20 13:59 | 20.93412 | -89.64122 | 457 ft | 213 kts | 104° |
| 2026-04-20 13:59 | 20.92922 | -89.62496 | 1114 ft | 229 kts | 113° |
| 2026-04-20 13:59 | 20.91913 | -89.61194 | 1648 ft | 233 kts | 138° |
| 2026-04-20 14:00 | 20.90438 | -89.60422 | 2176 ft | 245 kts | 161° |
| 2026-04-20 14:00 | 20.88705 | -89.60277 | 2742 ft | 252 kts | 179° |
| 2026-04-20 14:00 | 20.86935 | -89.60479 | 3269 ft | 256 kts | 185° |
| 2026-04-20 14:00 | 20.85176 | -89.60686 | 3768 ft | 256 kts | 182° |
| 2026-04-20 14:01 | 20.83387 | -89.60717 | 4277 ft | 257 kts | 176° |
| 2026-04-20 14:01 | 20.81605 | -89.60508 | 4783 ft | 257 kts | 169° |
| 2026-04-20 14:01 | 20.79875 | -89.60059 | 5286 ft | 258 kts | 162° |
| 2026-04-20 14:01 | 20.78165 | -89.59431 | 5795 ft | 259 kts | 158° |
| 2026-04-20 14:02 | 20.76491 | -89.58730 | 6294 ft | 260 kts | 157° |
| 2026-04-20 14:02 | 20.74821 | -89.58000 | 6790 ft | 262 kts | 157° |
| 2026-04-20 14:02 | 20.73107 | -89.57247 | 7296 ft | 265 kts | 157° |
| 2026-04-20 14:02 | 20.71406 | -89.56510 | 7793 ft | 267 kts | 158° |
| 2026-04-20 14:03 | 20.69664 | -89.55768 | 8297 ft | 270 kts | 158° |
| 2026-04-20 14:03 | 20.67926 | -89.55040 | 8792 ft | 272 kts | 158° |
| 2026-04-20 14:03 | 20.66132 | -89.54300 | 9300 ft | 275 kts | 159° |
| 2026-04-20 14:03 | 20.64350 | -89.53575 | 9801 ft | 277 kts | 159° |
| 2026-04-20 14:04 | 20.62545 | -89.52847 | 10301 ft | 279 kts | 159° |
| 2026-04-20 14:04 | 20.60715 | -89.52114 | 10804 ft | 281 kts | 159° |
| 2026-04-20 14:04 | 20.58875 | -89.51380 | 11306 ft | 282 kts | 159° |
| 2026-04-20 14:04 | 20.57012 | -89.50639 | 11819 ft | 287 kts | 158° |
| 2026-04-20 14:05 | 20.55123 | -89.49889 | 12325 ft | 292 kts | 158° |
| 2026-04-20 14:05 | 20.53229 | -89.49138 | 12823 ft | 295 kts | 159° |
| 2026-04-20 14:05 | 20.51282 | -89.48369 | 13329 ft | 299 kts | 159° |
| 2026-04-20 14:05 | 20.49317 | -89.47592 | 13831 ft | 302 kts | 159° |
| 2026-04-20 14:06 | 20.47362 | -89.46803 | 14331 ft | 304 kts | 159° |
| 2026-04-20 14:06 | 20.45364 | -89.45993 | 14834 ft | 307 kts | 159° |
| 2026-04-20 14:06 | 20.43347 | -89.45179 | 15338 ft | 310 kts | 159° |
| 2026-04-20 14:06 | 20.41337 | -89.44376 | 15834 ft | 313 kts | 159° |
| 2026-04-20 14:07 | 20.39283 | -89.43547 | 16338 ft | 316 kts | 159° |
| 2026-04-20 14:07 | 20.37219 | -89.42702 | 16841 ft | 319 kts | 159° |
| 2026-04-20 14:07 | 20.35142 | -89.41847 | 17342 ft | 321 kts | 159° |
| 2026-04-20 14:07 | 20.33043 | -89.40985 | 17844 ft | 324 kts | 159° |
| 2026-04-20 14:08 | 20.30945 | -89.40128 | 18342 ft | 327 kts | 159° |
| 2026-04-20 14:08 | 20.28796 | -89.39256 | 18775 ft | 332 kts | 159° |
| 2026-04-20 14:08 | 20.26619 | -89.38379 | 19154 ft | 334 kts | 160° |
| 2026-04-20 14:08 | 20.24451 | -89.37512 | 19528 ft | 336 kts | 160° |
| 2026-04-20 14:09 | 20.22262 | -89.36645 | 19902 ft | 338 kts | 160° |
| 2026-04-20 14:09 | 20.20024 | -89.35768 | 20282 ft | 340 kts | 161° |
| 2026-04-20 14:09 | 20.17813 | -89.34892 | 20656 ft | 343 kts | 160° |
| 2026-04-20 14:09 | 20.15586 | -89.33995 | 21029 ft | 345 kts | 160° |
| 2026-04-20 14:10 | 20.13326 | -89.33080 | 21408 ft | 347 kts | 160° |
| 2026-04-20 14:10 | 20.11071 | -89.32170 | 21782 ft | 349 kts | 160° |
| 2026-04-20 14:10 | 20.08768 | -89.31249 | 22162 ft | 351 kts | 161° |
| 2026-04-20 14:10 | 20.06472 | -89.30338 | 22537 ft | 354 kts | 161° |
| 2026-04-20 14:11 | 20.04160 | -89.29433 | 22913 ft | 356 kts | 161° |
| 2026-04-20 14:11 | 20.01841 | -89.28538 | 23286 ft | 358 kts | 161° |
| 2026-04-20 14:11 | 19.99480 | -89.27609 | 23665 ft | 360 kts | 161° |
| 2026-04-20 14:11 | 19.97138 | -89.26669 | 24041 ft | 362 kts | 160° |
| 2026-04-20 14:12 | 19.94779 | -89.25713 | 24416 ft | 364 kts | 161° |
| 2026-04-20 14:12 | 19.92379 | -89.24739 | 24797 ft | 366 kts | 161° |
| 2026-04-20 14:12 | 19.90002 | -89.23777 | 25171 ft | 368 kts | 161° |
| 2026-04-20 14:12 | 19.87599 | -89.22810 | 25548 ft | 370 kts | 161° |
| 2026-04-20 14:13 | 19.85203 | -89.21854 | 25921 ft | 371 kts | 161° |
| 2026-04-20 14:13 | 19.82761 | -89.20886 | 26300 ft | 373 kts | 162° |
| 2026-04-20 14:13 | 19.80334 | -89.19933 | 26673 ft | 375 kts | 162° |
| 2026-04-20 14:13 | 19.77876 | -89.18976 | 27050 ft | 376 kts | 162° |
| 2026-04-20 14:14 | 19.76232 | -89.18342 | 27301 ft | 377 kts | 162° |
| 2026-04-20 14:14 | 19.72939 | -89.17071 | 27801 ft | 380 kts | 162° |
| 2026-04-20 14:14 | 19.70451 | -89.16078 | 28178 ft | 382 kts | 162° |
| 2026-04-20 14:14 | 19.68797 | -89.15408 | 28428 ft | 383 kts | 162° |
| 2026-04-20 14:15 | 19.65482 | -89.14060 | 28927 ft | 385 kts | 162° |
| 2026-04-20 14:15 | 19.63814 | -89.13382 | 29177 ft | 386 kts | 162° |
| 2026-04-20 14:15 | 19.61276 | -89.12354 | 29556 ft | 388 kts | 162° |
| 2026-04-20 14:15 | 19.58761 | -89.11342 | 29930 ft | 389 kts | 162° |
| 2026-04-20 14:16 | 19.56208 | -89.10321 | 30307 ft | 391 kts | 163° |
| 2026-04-20 14:16 | 19.53658 | -89.09309 | 30681 ft | 393 kts | 163° |
| 2026-04-20 14:16 | 19.51089 | -89.08298 | 31055 ft | 395 kts | 163° |
| 2026-04-20 14:16 | 19.48483 | -89.07279 | 31433 ft | 398 kts | 163° |
| 2026-04-20 14:17 | 19.45898 | -89.06276 | 31805 ft | 401 kts | 163° |
| 2026-04-20 14:17 | 19.43252 | -89.05261 | 32182 ft | 404 kts | 164° |
| 2026-04-20 14:17 | 19.40606 | -89.04249 | 32557 ft | 407 kts | 163° |
| 2026-04-20 14:17 | 19.37930 | -89.03189 | 32935 ft | 410 kts | 163° |
| 2026-04-20 14:18 | 19.35241 | -89.02101 | 33312 ft | 414 kts | 162° |
| 2026-04-20 14:18 | 19.32568 | -89.01010 | 33684 ft | 417 kts | 162° |
| 2026-04-20 14:18 | 19.29846 | -88.99897 | 34061 ft | 420 kts | 162° |
| 2026-04-20 14:18 | 19.27099 | -88.98777 | 34439 ft | 422 kts | 162° |
| 2026-04-20 14:19 | 19.24375 | -88.97669 | 34811 ft | 425 kts | 162° |
| 2026-04-20 14:19 | 19.21587 | -88.96541 | 35014 ft | 431 kts | 162° |
| 2026-04-20 14:19 | 19.15862 | -88.94242 | 35130 ft | 446 kts | 162° |
| 2026-04-20 14:20 | 19.10043 | -88.91917 | 35124 ft | 450 kts | 162° |
| 2026-04-20 14:20 | 19.04184 | -88.89583 | 35119 ft | 445 kts | 162° |
| 2026-04-20 14:21 | 18.98415 | -88.87298 | 35119 ft | 444 kts | 163° |
| 2026-04-20 14:21 | 18.92625 | -88.85019 | 35118 ft | 443 kts | 163° |
| 2026-04-20 14:22 | 18.86842 | -88.82754 | 35117 ft | 443 kts | 163° |
| 2026-04-20 14:22 | 18.81040 | -88.80490 | 35116 ft | 443 kts | 163° |
| 2026-04-20 14:23 | 18.75273 | -88.78245 | 35114 ft | 443 kts | 163° |
| 2026-04-20 14:23 | 18.69478 | -88.75996 | 35114 ft | 443 kts | 163° |
| 2026-04-20 14:24 | 18.63692 | -88.73757 | 35112 ft | 443 kts | 163° |
| 2026-04-20 14:24 | 18.57899 | -88.71526 | 35111 ft | 443 kts | 163° |
| 2026-04-20 14:25 | 18.52119 | -88.69314 | 35111 ft | 443 kts | 163° |
| 2026-04-20 14:25 | 18.46308 | -88.67116 | 35108 ft | 443 kts | 163° |
| 2026-04-20 14:26 | 18.40508 | -88.64924 | 35107 ft | 443 kts | 162° |
| 2026-04-20 14:26 | 18.34756 | -88.62650 | 35107 ft | 443 kts | 162° |
| 2026-04-20 14:27 | 18.28956 | -88.60344 | 35108 ft | 443 kts | 162° |
| 2026-04-20 14:27 | 18.23180 | -88.58088 | 35107 ft | 443 kts | 162° |
| 2026-04-20 14:28 | 18.17408 | -88.55877 | 35104 ft | 443 kts | 162° |
| 2026-04-20 14:28 | 18.11619 | -88.53597 | 35102 ft | 443 kts | 162° |
| 2026-04-20 14:29 | 18.05849 | -88.51325 | 35101 ft | 443 kts | 162° |
| 2026-04-20 14:29 | 18.00068 | -88.49094 | 35099 ft | 443 kts | 162° |
| 2026-04-20 14:30 | 17.94261 | -88.46897 | 35097 ft | 444 kts | 162° |
| 2026-04-20 14:30 | 17.88473 | -88.44607 | 35095 ft | 444 kts | 161° |
| 2026-04-20 14:31 | 17.82691 | -88.42290 | 35093 ft | 444 kts | 161° |
| 2026-04-20 14:31 | 17.76919 | -88.39994 | 35091 ft | 443 kts | 162° |
| 2026-04-20 14:32 | 17.71181 | -88.37744 | 35090 ft | 443 kts | 162° |
| 2026-04-20 14:32 | 17.65392 | -88.35511 | 35090 ft | 443 kts | 162° |
| 2026-04-20 14:33 | 17.59568 | -88.33311 | 35089 ft | 443 kts | 162° |
| 2026-04-20 14:33 | 17.53775 | -88.31120 | 35089 ft | 443 kts | 162° |
| 2026-04-20 14:34 | 17.47997 | -88.28863 | 35089 ft | 443 kts | 162° |
| 2026-04-20 14:34 | 17.42219 | -88.26606 | 35089 ft | 443 kts | 162° |
| 2026-04-20 14:35 | 17.36453 | -88.24381 | 35088 ft | 442 kts | 162° |
| 2026-04-20 14:35 | 17.30685 | -88.22191 | 35088 ft | 442 kts | 162° |
| 2026-04-20 14:36 | 17.24885 | -88.20027 | 35087 ft | 442 kts | 162° |
| 2026-04-20 14:36 | 17.19065 | -88.17903 | 35086 ft | 441 kts | 163° |
| 2026-04-20 14:37 | 17.13312 | -88.15761 | 35084 ft | 441 kts | 162° |
| 2026-04-20 14:37 | 17.07515 | -88.13532 | 35082 ft | 441 kts | 161° |
| 2026-04-20 14:38 | 17.01780 | -88.11335 | 35079 ft | 441 kts | 162° |
| 2026-04-20 14:38 | 16.95998 | -88.09177 | 35076 ft | 440 kts | 162° |
| 2026-04-20 14:39 | 16.90224 | -88.07034 | 35074 ft | 440 kts | 162° |
| 2026-04-20 14:39 | 16.84481 | -88.04859 | 35071 ft | 440 kts | 161° |
| 2026-04-20 14:40 | 16.78716 | -88.02684 | 35068 ft | 439 kts | 161° |
| 2026-04-20 14:40 | 16.72977 | -88.00543 | 35065 ft | 439 kts | 162° |
| 2026-04-20 14:41 | 16.67217 | -87.98419 | 35062 ft | 438 kts | 162° |
| 2026-04-20 14:41 | 16.61474 | -87.96319 | 35060 ft | 438 kts | 162° |
| 2026-04-20 14:42 | 16.55741 | -87.94237 | 35057 ft | 437 kts | 162° |
| 2026-04-20 14:42 | 16.49997 | -87.92161 | 35055 ft | 437 kts | 162° |
| 2026-04-20 14:43 | 16.44242 | -87.90090 | 35053 ft | 437 kts | 162° |
| 2026-04-20 14:43 | 16.38492 | -87.88028 | 35069 ft | 436 kts | 162° |
| 2026-04-20 14:44 | 16.32780 | -87.85988 | 35069 ft | 436 kts | 162° |
| 2026-04-20 14:44 | 16.27017 | -87.83941 | 35069 ft | 436 kts | 162° |
| 2026-04-20 14:45 | 16.21270 | -87.81919 | 35068 ft | 436 kts | 162° |
| 2026-04-20 14:45 | 16.15518 | -87.79923 | 35064 ft | 436 kts | 162° |
| 2026-04-20 14:46 | 16.09815 | -87.77783 | 35079 ft | 436 kts | 160° |
| 2026-04-20 14:46 | 16.04154 | -87.75544 | 35087 ft | 430 kts | 160° |
| 2026-04-20 14:47 | 15.98603 | -87.73324 | 35127 ft | 434 kts | 160° |
| 2026-04-20 14:48 | 15.90004 | -87.69909 | 35271 ft | 449 kts | 160° |
| 2026-04-20 14:48 | 15.87020 | -87.68734 | 35642 ft | 458 kts | 160° |
| 2026-04-20 14:48 | 15.83992 | -87.67543 | 35731 ft | 462 kts | 160° |
| 2026-04-20 14:48 | 15.81052 | -87.66390 | 36298 ft | 455 kts | 160° |
| 2026-04-20 14:49 | 15.78056 | -87.65218 | 36615 ft | 455 kts | 160° |
| 2026-04-20 14:49 | 15.75148 | -87.64082 | 37605 ft | 449 kts | 160° |
| 2026-04-20 14:49 | 15.72196 | -87.62933 | 38139 ft | 447 kts | 160° |
| 2026-04-20 14:49 | 15.69337 | -87.61825 | 37835 ft | 443 kts | 160° |
| 2026-04-20 14:50 | 15.66430 | -87.60702 | 37710 ft | 443 kts | 160° |
| 2026-04-20 14:50 | 15.60631 | -87.58473 | 37501 ft | 449 kts | 160° |
| 2026-04-20 14:50 | 15.57692 | -87.57344 | 37369 ft | 444 kts | 160° |
| 2026-04-20 14:51 | 15.54788 | -87.56229 | 37157 ft | 447 kts | 160° |
| 2026-04-20 14:51 | 15.51926 | -87.55129 | 36927 ft | 438 kts | 160° |
| 2026-04-20 14:51 | 15.49050 | -87.54024 | 36758 ft | 442 kts | 160° |
| 2026-04-20 14:51 | 15.46125 | -87.52895 | 36524 ft | 451 kts | 160° |
| 2026-04-20 14:52 | 15.43193 | -87.51759 | 36193 ft | 450 kts | 160° |
| 2026-04-20 14:52 | 15.40276 | -87.50629 | 35828 ft | 448 kts | 160° |
| 2026-04-20 14:52 | 15.37344 | -87.49500 | 35433 ft | 446 kts | 160° |
| 2026-04-20 14:52 | 15.34464 | -87.48394 | 35194 ft | 441 kts | 160° |
| 2026-04-20 14:53 | 15.31572 | -87.47288 | 35095 ft | 442 kts | 160° |
| 2026-04-20 14:53 | 15.25804 | -87.45087 | 35059 ft | 445 kts | 160° |
| 2026-04-20 14:54 | 15.19943 | -87.42848 | 35061 ft | 448 kts | 160° |
| 2026-04-20 14:54 | 15.14097 | -87.40621 | 35063 ft | 448 kts | 160° |
| 2026-04-20 14:55 | 15.08243 | -87.38393 | 35067 ft | 449 kts | 160° |
| 2026-04-20 14:55 | 15.02415 | -87.36167 | 35071 ft | 449 kts | 160° |
| 2026-04-20 14:56 | 14.97538 | -87.34309 | 35075 ft | 449 kts | 160° |
| 2026-04-20 14:56 | 14.91657 | -87.32078 | 35089 ft | 449 kts | 160° |
| 2026-04-20 14:57 | 14.85774 | -87.29853 | 35097 ft | 449 kts | 160° |
| 2026-04-20 14:57 | 14.79916 | -87.27621 | 35103 ft | 449 kts | 160° |
| 2026-04-20 14:58 | 14.74090 | -87.25404 | 35110 ft | 449 kts | 160° |
| 2026-04-20 14:58 | 14.68194 | -87.23183 | 35119 ft | 448 kts | 160° |
| 2026-04-20 14:59 | 14.62359 | -87.21006 | 35132 ft | 448 kts | 160° |
| 2026-04-20 14:59 | 14.56493 | -87.18830 | 35152 ft | 448 kts | 160° |
| 2026-04-20 15:00 | 14.50582 | -87.16658 | 35159 ft | 448 kts | 161° |
| 2026-04-20 15:00 | 14.44723 | -87.14479 | 35168 ft | 448 kts | 159° |
| 2026-04-20 15:01 | 14.38918 | -87.12055 | 35178 ft | 449 kts | 158° |
| 2026-04-20 15:01 | 14.33202 | -87.09556 | 35183 ft | 449 kts | 157° |
| 2026-04-20 15:02 | 14.27449 | -87.07024 | 35187 ft | 449 kts | 157° |
| 2026-04-20 15:02 | 14.21692 | -87.04497 | 35189 ft | 449 kts | 157° |
| 2026-04-20 15:03 | 14.15979 | -87.02002 | 35191 ft | 449 kts | 157° |
| 2026-04-20 15:03 | 14.10215 | -86.99499 | 35191 ft | 449 kts | 158° |
| 2026-04-20 15:04 | 14.04422 | -86.97019 | 35186 ft | 449 kts | 158° |
| 2026-04-20 15:04 | 13.98656 | -86.94573 | 35195 ft | 449 kts | 158° |
| 2026-04-20 15:05 | 13.92873 | -86.92131 | 35184 ft | 449 kts | 158° |
| 2026-04-20 15:05 | 13.87097 | -86.89692 | 35168 ft | 449 kts | 158° |
| 2026-04-20 15:06 | 13.81314 | -86.87252 | 35151 ft | 449 kts | 158° |
| 2026-04-20 15:06 | 13.75540 | -86.84815 | 35132 ft | 449 kts | 158° |
| 2026-04-20 15:07 | 13.69762 | -86.82379 | 35115 ft | 449 kts | 158° |
| 2026-04-20 15:07 | 13.64004 | -86.79953 | 35099 ft | 449 kts | 158° |
| 2026-04-20 15:08 | 13.58226 | -86.77521 | 35086 ft | 449 kts | 158° |
| 2026-04-20 15:08 | 13.52435 | -86.75086 | 35077 ft | 448 kts | 158° |
| 2026-04-20 15:09 | 13.46666 | -86.72664 | 35069 ft | 449 kts | 158° |
| 2026-04-20 15:09 | 13.40894 | -86.70245 | 35063 ft | 449 kts | 158° |
| 2026-04-20 15:10 | 13.35108 | -86.67825 | 35059 ft | 449 kts | 158° |
| 2026-04-20 15:10 | 13.29316 | -86.65410 | 35042 ft | 449 kts | 158° |
| 2026-04-20 15:11 | 13.23550 | -86.63015 | 35016 ft | 448 kts | 158° |
| 2026-04-20 15:11 | 13.17757 | -86.60624 | 35014 ft | 449 kts | 158° |
| 2026-04-20 15:12 | 13.11952 | -86.58258 | 35011 ft | 449 kts | 158° |
| 2026-04-20 15:12 | 13.06158 | -86.55869 | 35007 ft | 448 kts | 157° |
| 2026-04-20 15:13 | 13.00409 | -86.53389 | 35005 ft | 448 kts | 156° |
| 2026-04-20 15:13 | 12.94660 | -86.50890 | 35005 ft | 449 kts | 156° |
| 2026-04-20 15:14 | 12.88905 | -86.48401 | 35004 ft | 449 kts | 157° |
| 2026-04-20 15:14 | 12.83179 | -86.45946 | 35003 ft | 449 kts | 157° |
| 2026-04-20 15:15 | 12.77401 | -86.43491 | 35002 ft | 449 kts | 157° |
| 2026-04-20 15:15 | 12.71625 | -86.41053 | 35001 ft | 449 kts | 157° |
| 2026-04-20 15:16 | 12.65844 | -86.38625 | 35000 ft | 449 kts | 157° |
| 2026-04-20 15:16 | 12.60099 | -86.36220 | 34997 ft | 449 kts | 157° |
| 2026-04-20 15:17 | 12.54307 | -86.33804 | 34995 ft | 449 kts | 157° |
| 2026-04-20 15:17 | 12.48524 | -86.31397 | 34994 ft | 449 kts | 157° |
| 2026-04-20 15:18 | 12.42734 | -86.28993 | 34994 ft | 449 kts | 157° |
| 2026-04-20 15:18 | 12.36937 | -86.26594 | 34994 ft | 449 kts | 157° |
| 2026-04-20 15:19 | 12.31136 | -86.24201 | 34995 ft | 450 kts | 157° |
| 2026-04-20 15:19 | 12.25339 | -86.21827 | 34994 ft | 450 kts | 158° |
| 2026-04-20 15:19 | 12.22429 | -86.20644 | 34844 ft | 442 kts | 158° |
| 2026-04-20 15:20 | 12.19631 | -86.19519 | 34469 ft | 432 kts | 158° |
| 2026-04-20 15:20 | 12.16828 | -86.18399 | 34017 ft | 422 kts | 157° |
| 2026-04-20 15:20 | 12.14161 | -86.17305 | 33567 ft | 414 kts | 156° |
| 2026-04-20 15:20 | 12.11520 | -86.16202 | 33114 ft | 407 kts | 156° |
| 2026-04-20 15:21 | 12.08918 | -86.15108 | 32660 ft | 401 kts | 156° |
| 2026-04-20 15:21 | 12.06356 | -86.14030 | 32207 ft | 395 kts | 156° |
| 2026-04-20 15:21 | 12.03828 | -86.12971 | 31755 ft | 390 kts | 156° |
| 2026-04-20 15:21 | 12.01327 | -86.11928 | 31303 ft | 386 kts | 156° |
| 2026-04-20 15:22 | 11.98854 | -86.10902 | 30851 ft | 382 kts | 156° |
| 2026-04-20 15:22 | 11.96403 | -86.09891 | 30400 ft | 378 kts | 156° |
| 2026-04-20 15:22 | 11.93977 | -86.08895 | 29949 ft | 374 kts | 156° |
| 2026-04-20 15:22 | 11.91576 | -86.07913 | 29497 ft | 370 kts | 156° |
| 2026-04-20 15:23 | 11.89197 | -86.06942 | 29045 ft | 366 kts | 156° |
| 2026-04-20 15:23 | 11.86837 | -86.05982 | 28593 ft | 363 kts | 156° |
| 2026-04-20 15:23 | 11.84491 | -86.05030 | 28141 ft | 360 kts | 156° |
| 2026-04-20 15:23 | 11.82194 | -86.04099 | 27694 ft | 357 kts | 156° |
| 2026-04-20 15:24 | 11.79892 | -86.03167 | 27243 ft | 354 kts | 157° |
| 2026-04-20 15:24 | 11.77607 | -86.02244 | 26792 ft | 352 kts | 157° |
| 2026-04-20 15:24 | 11.75341 | -86.01329 | 26341 ft | 349 kts | 157° |
| 2026-04-20 15:24 | 11.73091 | -86.00421 | 25890 ft | 346 kts | 157° |
| 2026-04-20 15:25 | 11.70861 | -85.99522 | 25440 ft | 344 kts | 157° |
| 2026-04-20 15:25 | 11.68645 | -85.98628 | 24989 ft | 341 kts | 157° |
| 2026-04-20 15:25 | 11.66437 | -85.97739 | 24539 ft | 337 kts | 157° |
| 2026-04-20 15:25 | 11.64287 | -85.96874 | 24093 ft | 331 kts | 158° |
| 2026-04-20 15:26 | 11.62166 | -85.96021 | 23647 ft | 329 kts | 158° |
| 2026-04-20 15:26 | 11.60030 | -85.95164 | 23196 ft | 328 kts | 157° |
| 2026-04-20 15:26 | 11.57924 | -85.94319 | 22750 ft | 327 kts | 157° |
| 2026-04-20 15:26 | 11.55805 | -85.93468 | 22299 ft | 325 kts | 157° |
| 2026-04-20 15:27 | 11.53719 | -85.92631 | 21852 ft | 323 kts | 157° |
| 2026-04-20 15:27 | 11.51633 | -85.91793 | 21376 ft | 321 kts | 156° |
| 2026-04-20 15:27 | 11.49556 | -85.90959 | 20878 ft | 319 kts | 156° |
| 2026-04-20 15:27 | 11.47498 | -85.90133 | 20379 ft | 316 kts | 156° |
| 2026-04-20 15:28 | 11.45455 | -85.89313 | 19877 ft | 314 kts | 156° |
| 2026-04-20 15:28 | 11.43457 | -85.88511 | 19383 ft | 311 kts | 156° |
| 2026-04-20 15:28 | 11.41454 | -85.87708 | 18883 ft | 308 kts | 156° |
| 2026-04-20 15:28 | 11.39468 | -85.86913 | 18382 ft | 305 kts | 156° |
| 2026-04-20 15:29 | 11.37498 | -85.86125 | 17882 ft | 303 kts | 155° |
| 2026-04-20 15:29 | 11.35548 | -85.85344 | 17381 ft | 300 kts | 155° |
| 2026-04-20 15:29 | 11.33613 | -85.84570 | 16880 ft | 297 kts | 156° |
| 2026-04-20 15:29 | 11.31691 | -85.83802 | 16379 ft | 295 kts | 156° |
| 2026-04-20 15:30 | 11.29788 | -85.83043 | 15878 ft | 292 kts | 156° |
| 2026-04-20 15:30 | 11.27901 | -85.82294 | 15377 ft | 290 kts | 156° |
| 2026-04-20 15:30 | 11.26029 | -85.81554 | 14877 ft | 288 kts | 156° |
| 2026-04-20 15:30 | 11.24169 | -85.80820 | 14375 ft | 285 kts | 156° |
| 2026-04-20 15:31 | 11.22331 | -85.80070 | 13874 ft | 283 kts | 156° |
| 2026-04-20 15:31 | 11.20517 | -85.79313 | 13374 ft | 281 kts | 155° |
| 2026-04-20 15:31 | 11.18715 | -85.78558 | 12873 ft | 279 kts | 155° |
| 2026-04-20 15:31 | 11.16927 | -85.77810 | 12372 ft | 276 kts | 155° |
| 2026-04-20 15:32 | 11.15177 | -85.77079 | 11878 ft | 274 kts | 156° |
| 2026-04-20 15:32 | 11.13410 | -85.76348 | 11375 ft | 273 kts | 156° |
| 2026-04-20 15:32 | 11.11654 | -85.75626 | 10873 ft | 271 kts | 155° |
| 2026-04-20 15:32 | 11.09905 | -85.74909 | 10368 ft | 269 kts | 155° |
| 2026-04-20 15:33 | 11.08168 | -85.74200 | 9873 ft | 268 kts | 155° |
| 2026-04-20 15:33 | 11.06440 | -85.73495 | 9368 ft | 267 kts | 154° |
| 2026-04-20 15:33 | 11.04722 | -85.72795 | 8867 ft | 265 kts | 154° |
| 2026-04-20 15:33 | 11.03012 | -85.72098 | 8368 ft | 264 kts | 154° |
| 2026-04-20 15:34 | 11.01318 | -85.71404 | 7869 ft | 262 kts | 154° |
| 2026-04-20 15:34 | 10.99653 | -85.70723 | 7374 ft | 260 kts | 154° |
| 2026-04-20 15:34 | 10.97982 | -85.70040 | 6872 ft | 258 kts | 154° |
| 2026-04-20 15:34 | 10.96320 | -85.69362 | 6372 ft | 256 kts | 154° |
| 2026-04-20 15:35 | 10.94678 | -85.68682 | 5868 ft | 253 kts | 153° |
| 2026-04-20 15:35 | 10.93029 | -85.68048 | 5357 ft | 254 kts | 162° |
| 2026-04-20 15:35 | 10.91283 | -85.67852 | 5101 ft | 250 kts | 174° |
| 2026-04-20 15:35 | 10.89531 | -85.67850 | 5034 ft | 251 kts | 178° |
| 2026-04-20 15:36 | 10.87794 | -85.67911 | 5006 ft | 250 kts | 179° |
| 2026-04-20 15:36 | 10.86061 | -85.67994 | 5000 ft | 251 kts | 180° |
| 2026-04-20 15:36 | 10.84302 | -85.68085 | 4999 ft | 251 kts | 180° |
| 2026-04-20 15:36 | 10.82569 | -85.68177 | 5000 ft | 251 kts | 180° |
| 2026-04-20 15:37 | 10.80827 | -85.68270 | 4996 ft | 252 kts | 180° |
| 2026-04-20 15:37 | 10.79071 | -85.68385 | 4994 ft | 253 kts | 183° |
| 2026-04-20 15:37 | 10.77343 | -85.68798 | 5019 ft | 255 kts | 194° |
| 2026-04-20 15:37 | 10.75669 | -85.69387 | 5003 ft | 257 kts | 198° |
| 2026-04-20 15:38 | 10.74012 | -85.70038 | 4999 ft | 256 kts | 199° |
| 2026-04-20 15:38 | 10.72344 | -85.70717 | 4889 ft | 260 kts | 200° |
| 2026-04-20 15:38 | 10.70665 | -85.71407 | 4564 ft | 253 kts | 200° |
| 2026-04-20 15:38 | 10.69039 | -85.72076 | 4218 ft | 254 kts | 200° |
| 2026-04-20 15:39 | 10.67402 | -85.72746 | 3880 ft | 252 kts | 200° |
| 2026-04-20 15:39 | 10.65782 | -85.73405 | 3619 ft | 249 kts | 200° |
| 2026-04-20 15:39 | 10.64193 | -85.74048 | 3535 ft | 248 kts | 200° |
| 2026-04-20 15:39 | 10.62580 | -85.74697 | 3509 ft | 247 kts | 200° |
| 2026-04-20 15:40 | 10.60976 | -85.75335 | 3500 ft | 247 kts | 199° |
| 2026-04-20 15:40 | 10.59318 | -85.75655 | 3521 ft | 242 kts | 182° |
| 2026-04-20 15:40 | 10.58222 | -85.75638 | 3522 ft | 232 kts | 174° |
| 2026-04-20 15:40 | 10.56673 | -85.75371 | 3504 ft | 217 kts | 165° |
| 2026-04-20 15:41 | 10.55274 | -85.74942 | 3494 ft | 207 kts | 157° |
| 2026-04-20 15:41 | 10.53967 | -85.74346 | 3502 ft | 202 kts | 152° |
| 2026-04-20 15:41 | 10.52898 | -85.73502 | 3482 ft | 196 kts | 128° |
| 2026-04-20 15:41 | 10.52369 | -85.72247 | 3510 ft | 194 kts | 100° |
| 2026-04-20 15:42 | 10.52505 | -85.70902 | 3508 ft | 194 kts | 72° |
| 2026-04-20 15:42 | 10.53245 | -85.69753 | 3501 ft | 194 kts | 51° |
| 2026-04-20 15:42 | 10.54087 | -85.68711 | 3156 ft | 187 kts | 53° |
| 2026-04-20 15:42 | 10.54691 | -85.67585 | 2866 ft | 173 kts | 65° |
| 2026-04-20 15:43 | 10.55073 | -85.66477 | 2727 ft | 160 kts | 71° |
| 2026-04-20 15:43 | 10.55403 | -85.65416 | 2533 ft | 157 kts | 71° |
| 2026-04-20 15:43 | 10.55759 | -85.64379 | 2271 ft | 155 kts | 70° |
| 2026-04-20 15:43 | 10.56136 | -85.63351 | 2043 ft | 155 kts | 69° |
| 2026-04-20 15:44 | 10.56513 | -85.62324 | 1815 ft | 154 kts | 69° |
| 2026-04-20 15:44 | 10.56877 | -85.61318 | 1584 ft | 152 kts | 70° |
| 2026-04-20 15:44 | 10.57250 | -85.60311 | 1368 ft | 151 kts | 70° |
| 2026-04-20 15:44 | 10.57619 | -85.59307 | 1140 ft | 150 kts | 72° |
| 2026-04-20 15:45 | 10.57965 | -85.58321 | 928 ft | 149 kts | 71° |
| 2026-04-20 15:45 | 10.58309 | -85.57329 | 744 ft | 150 kts | 71° |
| 2026-04-20 15:45 | 10.58674 | -85.56333 | 506 ft | 149 kts | 70° |
| 2026-04-20 15:45 | 10.59007 | -85.55386 | 301 ft | 131 kts | 69° |
| 2026-04-20 15:46 | 10.59268 | -85.54688 | 281 ft | 64 kts | 74° |
| 2026-04-20 15:46 | 10.59366 | -85.54378 | 281 ft | 44 kts | 69° |
| 2026-04-20 15:46 | 10.59449 | -85.54149 | 281 ft | 28 kts | 70° |
| 2026-04-20 15:46 | 10.59516 | -85.54003 | 281 ft | 18 kts | 41° |
| 2026-04-20 15:47 | 10.59594 | -85.54000 | 281 ft | 8 kts | 341° |
| 2026-04-20 15:47 | 10.59633 | -85.54013 | 281 ft | 7 kts | 341° |
| 2026-04-20 15:47 | 10.59694 | -85.54035 | 281 ft | 11 kts | 342° |
| 2026-04-20 15:47 | 10.59766 | -85.54059 | 281 ft | 11 kts | 341° |
| 2026-04-20 15:48 | 10.59817 | -85.54038 | 281 ft | 8 kts | 48° |
| 2026-04-20 15:48 | 10.59884 | -85.54012 | 281 ft | 10 kts | 358° |
| 2026-04-20 15:48 | 10.59910 | -85.54017 | 281 ft | 0 kts | 340° |